Lexington, SC (29071)

6:08 PM EDT on October 31, 2014 (GMT -0400)
Hawthorne | Change Station
CLOSE
Current Station
Personal Weather Station
Location: Lexington, SC
Elevation: 310 ft
Nearby Weather Stations
Active Advisory: Lake Wind Advisory

Elev 310 ft 33.99 °N, 81.19 °W | Updated 12 seconds ago

Partly Cloudy
Partly Cloudy
59.1 °F
Feels Like 59.1 °F
N
0.0
Wind Variable Wind from West
Gusts 0.0 mph

Today
High -- | Low -- °F
--% Chance of Precip.
Yesterday
High -- | Low -- °F
Precip. -- in
7:43 AM 6:33 PM
First Quarter, 59% visible
Pressure 29.78 in
Visibility 10.0 miles
Clouds Scattered Clouds 5500 ft
Mostly Cloudy 8500 ft
Dew Point 52 °F
Humidity 76%
Rainfall 0.00 in
Snow Depth Not available.
UV 0 out of 12
Pollen 3.20 out of 12
Air Quality Not available.
Flu Activity Not available.
METAR KCAE 312156Z 18008KT 10SM -RA SCT055 BKN085 17/10 A2978 RMK AO2 RAB46 SLP084 P0000 T01720100

More Conditions Fewer Conditions

Pressure 29.78 in
Visibility 10.0 miles
Clouds Scattered Clouds 5500 ft
Mostly Cloudy 8500 ft
Dew Point 52 °F
Humidity 76%
Rainfall 0.00 in
Snow Depth Not available.
UV 0 out of 12
Pollen 3.20 out of 12
Air Quality Not available.
Flu Activity Not available.
METAR KCAE 312156Z 18008KT 10SM -RA SCT055 BKN085 17/10 A2978 RMK AO2 RAB46 SLP084 P0000 T01720100

More Conditions Fewer Conditions

10-Day Weather Forecast

Almanac

Astronomy

Oct. 31, 2014 Rise Set
Actual Time
Civil Twilight
Nautical Twilight
Astronomical Twilight
Moon
Length of Visible Light
Length of Day
Tomorrow will be .
, % of the Moon is Illuminated

Today's Extremes

State Highs State Lows

Community

WunderPhotos

Upload Photos

1,766,751 photos uploaded!

WunderBlogs® & News

Nearby

Air Quality

  Air Quality AQ Index Pollutant
Not available.

Snow Depth

Station Depth Elevation

Earthquake Activity

City Distance Mag. Time & Date
Minimum magnitude displayed is 2.5.

Coastal Water Temperatures

Place Temperature

Nearby Weather Stations